sensor_id;sensor_type;location;lat;lon;timestamp;P1;durP1;ratioP1;P2;durP2;ratioP2
10309;SDS011;5200;43.236;27.986;2023-02-16T00:01:00;11.17;;;7.43;;
10309;SDS011;5200;43.236;27.986;2023-02-16T00:03:28;11.40;;;7.73;;
10309;SDS011;5200;43.236;27.986;2023-02-16T00:05:56;9.60;;;6.80;;
10309;SDS011;5200;43.236;27.986;2023-02-16T00:08:23;11.90;;;7.27;;
10309;SDS011;5200;43.236;27.986;2023-02-16T00:10:50;13.57;;;7.63;;
10309;SDS011;5200;43.236;27.986;2023-02-16T00:13:34;11.10;;;7.33;;
10309;SDS011;5200;43.236;27.986;2023-02-16T00:16:15;11.97;;;7.97;;
10309;SDS011;5200;43.236;27.986;2023-02-16T00:18:43;11.80;;;7.27;;
10309;SDS011;5200;43.236;27.986;2023-02-16T00:21:12;12.63;;;7.17;;
10309;SDS011;5200;43.236;27.986;2023-02-16T00:23:39;9.97;;;7.27;;
10309;SDS011;5200;43.236;27.986;2023-02-16T00:26:10;13.27;;;7.10;;
10309;SDS011;5200;43.236;27.986;2023-02-16T00:28:40;16.47;;;7.33;;
10309;SDS011;5200;43.236;27.986;2023-02-16T00:31:10;14.73;;;7.20;;
10309;SDS011;5200;43.236;27.986;2023-02-16T00:33:41;11.07;;;6.90;;
10309;SDS011;5200;43.236;27.986;2023-02-16T00:36:08;12.97;;;7.80;;
10309;SDS011;5200;43.236;27.986;2023-02-16T00:38:36;12.23;;;7.30;;
10309;SDS011;5200;43.236;27.986;2023-02-16T00:41:03;9.93;;;7.17;;
10309;SDS011;5200;43.236;27.986;2023-02-16T00:43:50;13.13;;;7.73;;
10309;SDS011;5200;43.236;27.986;2023-02-16T00:46:19;13.07;;;7.13;;
10309;SDS011;5200;43.236;27.986;2023-02-16T00:48:46;12.93;;;7.37;;
10309;SDS011;5200;43.236;27.986;2023-02-16T00:51:13;12.60;;;7.27;;
10309;SDS011;5200;43.236;27.986;2023-02-16T00:53:41;15.03;;;7.83;;
10309;SDS011;5200;43.236;27.986;2023-02-16T00:56:09;12.37;;;6.67;;
10309;SDS011;5200;43.236;27.986;2023-02-16T00:58:40;11.20;;;6.70;;
10309;SDS011;5200;43.236;27.986;2023-02-16T01:01:07;10.80;;;7.43;;
10309;SDS011;5200;43.236;27.986;2023-02-16T01:03:38;13.33;;;7.13;;
10309;SDS011;5200;43.236;27.986;2023-02-16T01:06:05;12.80;;;6.40;;
10309;SDS011;5200;43.236;27.986;2023-02-16T01:08:50;11.40;;;7.50;;
10309;SDS011;5200;43.236;27.986;2023-02-16T01:11:38;9.90;;;7.20;;
10309;SDS011;5200;43.236;27.986;2023-02-16T01:14:04;11.37;;;6.93;;
10309;SDS011;5200;43.236;27.986;2023-02-16T01:16:33;10.23;;;6.73;;
10309;SDS011;5200;43.236;27.986;2023-02-16T01:19:02;13.00;;;7.50;;
10309;SDS011;5200;43.236;27.986;2023-02-16T01:21:29;15.90;;;8.73;;
10309;SDS011;5200;43.236;27.986;2023-02-16T01:23:57;18.87;;;9.30;;
10309;SDS011;5200;43.236;27.986;2023-02-16T01:26:24;20.23;;;10.87;;
10309;SDS011;5200;43.236;27.986;2023-02-16T01:28:51;21.60;;;8.43;;
10309;SDS011;5200;43.236;27.986;2023-02-16T01:31:18;13.20;;;8.53;;
10309;SDS011;5200;43.236;27.986;2023-02-16T01:33:45;12.83;;;7.83;;
10309;SDS011;5200;43.236;27.986;2023-02-16T01:36:17;13.73;;;7.60;;
10309;SDS011;5200;43.236;27.986;2023-02-16T01:38:49;12.20;;;7.20;;
10309;SDS011;5200;43.236;27.986;2023-02-16T01:41:19;14.13;;;9.37;;
10309;SDS011;5200;43.236;27.986;2023-02-16T01:43:54;19.80;;;8.83;;
10309;SDS011;5200;43.236;27.986;2023-02-16T01:46:27;16.20;;;7.70;;
10309;SDS011;5200;43.236;27.986;2023-02-16T01:49:01;16.53;;;7.33;;
10309;SDS011;5200;43.236;27.986;2023-02-16T01:51:31;12.73;;;7.90;;
10309;SDS011;5200;43.236;27.986;2023-02-16T01:54:04;17.00;;;8.67;;
10309;SDS011;5200;43.236;27.986;2023-02-16T01:56:40;17.83;;;10.03;;
10309;SDS011;5200;43.236;27.986;2023-02-16T01:59:13;19.50;;;10.83;;
10309;SDS011;5200;43.236;27.986;2023-02-16T02:01:54;16.20;;;8.87;;
10309;SDS011;5200;43.236;27.986;2023-02-16T02:04:23;14.50;;;8.53;;
10309;SDS011;5200;43.236;27.986;2023-02-16T02:07:12;12.23;;;8.23;;
10309;SDS011;5200;43.236;27.986;2023-02-16T02:09:44;16.87;;;9.00;;
10309;SDS011;5200;43.236;27.986;2023-02-16T02:12:21;16.70;;;8.87;;
10309;SDS011;5200;43.236;27.986;2023-02-16T02:14:53;18.00;;;9.43;;
10309;SDS011;5200;43.236;27.986;2023-02-16T02:17:21;16.90;;;8.33;;
10309;SDS011;5200;43.236;27.986;2023-02-16T02:20:01;11.63;;;7.23;;
10309;SDS011;5200;43.236;27.986;2023-02-16T02:26:08;12.23;;;7.23;;
10309;SDS011;5200;43.236;27.986;2023-02-16T02:29:14;13.37;;;8.57;;
10309;SDS011;5200;43.236;27.986;2023-02-16T02:32:14;14.97;;;8.97;;
10309;SDS011;5200;43.236;27.986;2023-02-16T02:34:53;14.77;;;9.07;;
10309;SDS011;5200;43.236;27.986;2023-02-16T02:37:38;16.00;;;9.43;;
10309;SDS011;5200;43.236;27.986;2023-02-16T02:40:15;16.60;;;8.97;;
10309;SDS011;5200;43.236;27.986;2023-02-16T02:42:50;13.37;;;7.83;;
10309;SDS011;5200;43.236;27.986;2023-02-16T02:45:27;12.80;;;8.37;;
10309;SDS011;5200;43.236;27.986;2023-02-16T02:47:57;11.90;;;7.40;;
10309;SDS011;5200;43.236;27.986;2023-02-16T02:50:29;13.50;;;8.13;;
10309;SDS011;5200;43.236;27.986;2023-02-16T02:53:05;20.93;;;8.93;;
10309;SDS011;5200;43.236;27.986;2023-02-16T02:55:38;16.67;;;9.87;;
10309;SDS011;5200;43.236;27.986;2023-02-16T02:58:28;19.33;;;11.00;;
10309;SDS011;5200;43.236;27.986;2023-02-16T03:01:32;17.67;;;8.83;;
10309;SDS011;5200;43.236;27.986;2023-02-16T03:04:01;13.67;;;8.03;;
10309;SDS011;5200;43.236;27.986;2023-02-16T03:06:32;13.97;;;8.63;;
10309;SDS011;5200;43.236;27.986;2023-02-16T03:09:03;13.37;;;8.53;;
10309;SDS011;5200;43.236;27.986;2023-02-16T03:11:35;22.27;;;9.47;;
10309;SDS011;5200;43.236;27.986;2023-02-16T03:14:21;15.03;;;8.67;;
10309;SDS011;5200;43.236;27.986;2023-02-16T03:16:54;14.03;;;8.43;;
10309;SDS011;5200;43.236;27.986;2023-02-16T03:19:42;12.93;;;7.97;;
10309;SDS011;5200;43.236;27.986;2023-02-16T03:22:28;12.63;;;7.80;;
10309;SDS011;5200;43.236;27.986;2023-02-16T03:25:13;16.70;;;8.97;;
10309;SDS011;5200;43.236;27.986;2023-02-16T03:27:59;16.90;;;8.43;;
10309;SDS011;5200;43.236;27.986;2023-02-16T03:30:47;11.57;;;8.13;;
10309;SDS011;5200;43.236;27.986;2023-02-16T03:33:17;14.57;;;8.23;;
10309;SDS011;5200;43.236;27.986;2023-02-16T03:35:45;17.47;;;8.97;;
10309;SDS011;5200;43.236;27.986;2023-02-16T03:38:13;12.90;;;8.57;;
10309;SDS011;5200;43.236;27.986;2023-02-16T03:40:40;14.37;;;8.43;;
10309;SDS011;5200;43.236;27.986;2023-02-16T03:43:10;15.43;;;8.67;;
10309;SDS011;5200;43.236;27.986;2023-02-16T03:45:37;13.53;;;7.60;;
10309;SDS011;5200;43.236;27.986;2023-02-16T03:48:06;14.87;;;8.13;;
10309;SDS011;5200;43.236;27.986;2023-02-16T03:50:34;13.43;;;7.73;;
10309;SDS011;5200;43.236;27.986;2023-02-16T03:53:01;14.00;;;8.53;;
10309;SDS011;5200;43.236;27.986;2023-02-16T03:55:32;15.80;;;9.30;;
10309;SDS011;5200;43.236;27.986;2023-02-16T03:57:59;14.60;;;9.33;;
10309;SDS011;5200;43.236;27.986;2023-02-16T04:00:26;14.03;;;8.40;;
10309;SDS011;5200;43.236;27.986;2023-02-16T04:02:53;13.67;;;8.47;;
10309;SDS011;5200;43.236;27.986;2023-02-16T04:05:19;12.60;;;8.00;;
10309;SDS011;5200;43.236;27.986;2023-02-16T04:07:48;14.60;;;7.43;;
10309;SDS011;5200;43.236;27.986;2023-02-16T04:10:15;13.20;;;7.83;;
10309;SDS011;5200;43.236;27.986;2023-02-16T04:12:42;12.20;;;7.93;;
10309;SDS011;5200;43.236;27.986;2023-02-16T04:15:11;12.83;;;7.60;;
10309;SDS011;5200;43.236;27.986;2023-02-16T04:17:39;14.20;;;7.83;;
10309;SDS011;5200;43.236;27.986;2023-02-16T04:20:07;15.60;;;9.10;;
10309;SDS011;5200;43.236;27.986;2023-02-16T04:22:36;20.10;;;9.30;;
10309;SDS011;5200;43.236;27.986;2023-02-16T04:25:05;15.07;;;8.90;;
10309;SDS011;5200;43.236;27.986;2023-02-16T04:27:32;14.63;;;8.53;;
10309;SDS011;5200;43.236;27.986;2023-02-16T04:30:00;20.97;;;10.27;;
10309;SDS011;5200;43.236;27.986;2023-02-16T04:32:27;18.13;;;9.43;;
10309;SDS011;5200;43.236;27.986;2023-02-16T04:34:54;19.27;;;10.47;;
10309;SDS011;5200;43.236;27.986;2023-02-16T04:37:20;17.70;;;10.07;;
10309;SDS011;5200;43.236;27.986;2023-02-16T04:39:47;19.17;;;10.87;;
10309;SDS011;5200;43.236;27.986;2023-02-16T04:42:15;18.77;;;10.60;;
10309;SDS011;5200;43.236;27.986;2023-02-16T04:44:42;18.73;;;10.00;;
10309;SDS011;5200;43.236;27.986;2023-02-16T04:47:09;21.07;;;10.57;;
10309;SDS011;5200;43.236;27.986;2023-02-16T04:49:36;14.60;;;8.93;;
10309;SDS011;5200;43.236;27.986;2023-02-16T04:52:03;23.27;;;10.67;;
10309;SDS011;5200;43.236;27.986;2023-02-16T04:54:31;18.37;;;9.40;;
10309;SDS011;5200;43.236;27.986;2023-02-16T04:56:58;16.53;;;9.67;;
10309;SDS011;5200;43.236;27.986;2023-02-16T04:59:27;18.07;;;9.50;;
10309;SDS011;5200;43.236;27.986;2023-02-16T05:01:53;16.40;;;9.40;;
10309;SDS011;5200;43.236;27.986;2023-02-16T05:04:21;18.50;;;9.67;;
10309;SDS011;5200;43.236;27.986;2023-02-16T05:06:48;14.53;;;9.57;;
10309;SDS011;5200;43.236;27.986;2023-02-16T05:09:15;20.87;;;12.27;;
10309;SDS011;5200;43.236;27.986;2023-02-16T05:11:42;21.07;;;11.63;;
10309;SDS011;5200;43.236;27.986;2023-02-16T05:14:28;20.30;;;12.13;;
10309;SDS011;5200;43.236;27.986;2023-02-16T05:17:10;19.43;;;10.97;;
10309;SDS011;5200;43.236;27.986;2023-02-16T05:19:39;20.53;;;10.43;;
10309;SDS011;5200;43.236;27.986;2023-02-16T05:22:06;21.63;;;9.27;;
10309;SDS011;5200;43.236;27.986;2023-02-16T05:24:33;17.33;;;9.50;;
10309;SDS011;5200;43.236;27.986;2023-02-16T05:27:00;14.30;;;8.60;;
10309;SDS011;5200;43.236;27.986;2023-02-16T05:29:29;18.33;;;8.63;;
10309;SDS011;5200;43.236;27.986;2023-02-16T05:31:56;21.47;;;8.83;;
10309;SDS011;5200;43.236;27.986;2023-02-16T05:34:23;16.67;;;9.37;;
10309;SDS011;5200;43.236;27.986;2023-02-16T05:36:50;15.93;;;8.23;;
10309;SDS011;5200;43.236;27.986;2023-02-16T05:39:17;18.77;;;9.23;;
10309;SDS011;5200;43.236;27.986;2023-02-16T05:41:44;12.70;;;8.30;;
10309;SDS011;5200;43.236;27.986;2023-02-16T05:44:11;13.03;;;8.60;;
10309;SDS011;5200;43.236;27.986;2023-02-16T05:46:40;15.00;;;8.80;;
10309;SDS011;5200;43.236;27.986;2023-02-16T05:49:07;13.90;;;8.27;;
10309;SDS011;5200;43.236;27.986;2023-02-16T05:51:35;15.60;;;7.93;;
10309;SDS011;5200;43.236;27.986;2023-02-16T05:54:02;11.87;;;7.60;;
10309;SDS011;5200;43.236;27.986;2023-02-16T05:56:29;16.00;;;7.67;;
10309;SDS011;5200;43.236;27.986;2023-02-16T05:58:56;14.40;;;8.07;;
10309;SDS011;5200;43.236;27.986;2023-02-16T06:01:24;13.50;;;7.00;;
10309;SDS011;5200;43.236;27.986;2023-02-16T06:03:53;9.60;;;6.83;;
10309;SDS011;5200;43.236;27.986;2023-02-16T06:06:20;10.80;;;6.20;;
10309;SDS011;5200;43.236;27.986;2023-02-16T06:08:46;11.00;;;6.23;;
10309;SDS011;5200;43.236;27.986;2023-02-16T06:11:13;10.67;;;5.53;;
10309;SDS011;5200;43.236;27.986;2023-02-16T06:13:58;8.53;;;5.50;;
10309;SDS011;5200;43.236;27.986;2023-02-16T06:16:26;11.10;;;5.88;;
10309;SDS011;5200;43.236;27.986;2023-02-16T06:18:56;8.25;;;5.57;;
10309;SDS011;5200;43.236;27.986;2023-02-16T06:21:23;9.50;;;5.10;;
10309;SDS011;5200;43.236;27.986;2023-02-16T06:23:51;12.07;;;5.80;;
10309;SDS011;5200;43.236;27.986;2023-02-16T06:26:18;10.07;;;6.00;;
10309;SDS011;5200;43.236;27.986;2023-02-16T06:31:40;10.85;;;4.90;;
10309;SDS011;5200;43.236;27.986;2023-02-16T06:34:08;8.63;;;4.30;;
10309;SDS011;5200;43.236;27.986;2023-02-16T06:36:35;6.65;;;4.65;;
10309;SDS011;5200;43.236;27.986;2023-02-16T06:39:02;5.32;;;4.20;;
10309;SDS011;5200;43.236;27.986;2023-02-16T06:41:29;8.75;;;5.15;;
10309;SDS011;5200;43.236;27.986;2023-02-16T06:44:02;10.68;;;5.60;;
10309;SDS011;5200;43.236;27.986;2023-02-16T06:46:30;7.20;;;4.53;;
10309;SDS011;5200;43.236;27.986;2023-02-16T06:48:58;6.70;;;4.03;;
10309;SDS011;5200;43.236;27.986;2023-02-16T06:51:26;7.93;;;4.82;;
10309;SDS011;5200;43.236;27.986;2023-02-16T06:53:52;8.30;;;4.72;;
10309;SDS011;5200;43.236;27.986;2023-02-16T06:56:19;7.35;;;5.32;;
10309;SDS011;5200;43.236;27.986;2023-02-16T06:58:46;8.50;;;5.00;;
10309;SDS011;5200;43.236;27.986;2023-02-16T07:01:13;8.90;;;5.30;;
10309;SDS011;5200;43.236;27.986;2023-02-16T07:03:40;8.65;;;5.30;;
10309;SDS011;5200;43.236;27.986;2023-02-16T07:06:07;18.67;;;11.85;;
10309;SDS011;5200;43.236;27.986;2023-02-16T07:08:36;24.42;;;12.82;;
10309;SDS011;5200;43.236;27.986;2023-02-16T07:11:02;17.90;;;12.23;;
10309;SDS011;5200;43.236;27.986;2023-02-16T07:13:29;8.38;;;5.88;;
10309;SDS011;5200;43.236;27.986;2023-02-16T07:16:00;8.68;;;6.03;;
10309;SDS011;5200;43.236;27.986;2023-02-16T07:18:27;9.98;;;6.05;;
10309;SDS011;5200;43.236;27.986;2023-02-16T07:20:54;15.32;;;7.25;;
10309;SDS011;5200;43.236;27.986;2023-02-16T07:23:20;12.05;;;7.78;;
10309;SDS011;5200;43.236;27.986;2023-02-16T07:25:49;12.63;;;7.47;;
10309;SDS011;5200;43.236;27.986;2023-02-16T07:28:15;12.48;;;8.02;;
10309;SDS011;5200;43.236;27.986;2023-02-16T07:30:42;13.50;;;7.75;;
10309;SDS011;5200;43.236;27.986;2023-02-16T07:33:09;15.07;;;8.43;;
10309;SDS011;5200;43.236;27.986;2023-02-16T07:35:37;11.13;;;7.90;;
10309;SDS011;5200;43.236;27.986;2023-02-16T07:38:04;14.95;;;8.15;;
10309;SDS011;5200;43.236;27.986;2023-02-16T07:40:31;12.55;;;8.23;;
10309;SDS011;5200;43.236;27.986;2023-02-16T07:43:00;13.88;;;7.80;;
10309;SDS011;5200;43.236;27.986;2023-02-16T07:45:28;12.23;;;7.80;;
10309;SDS011;5200;43.236;27.986;2023-02-16T07:47:56;10.90;;;7.68;;
10309;SDS011;5200;43.236;27.986;2023-02-16T07:50:23;14.15;;;8.15;;
10309;SDS011;5200;43.236;27.986;2023-02-16T07:52:50;11.18;;;8.10;;
10309;SDS011;5200;43.236;27.986;2023-02-16T07:55:17;12.10;;;8.65;;
10309;SDS011;5200;43.236;27.986;2023-02-16T07:57:44;14.13;;;8.93;;
10309;SDS011;5200;43.236;27.986;2023-02-16T08:00:15;13.52;;;7.82;;
10309;SDS011;5200;43.236;27.986;2023-02-16T08:02:42;10.23;;;7.55;;
10309;SDS011;5200;43.236;27.986;2023-02-16T08:05:09;12.15;;;7.90;;
10309;SDS011;5200;43.236;27.986;2023-02-16T08:07:36;20.55;;;9.82;;
10309;SDS011;5200;43.236;27.986;2023-02-16T08:10:04;15.55;;;8.95;;
10309;SDS011;5200;43.236;27.986;2023-02-16T08:12:32;15.20;;;8.90;;
10309;SDS011;5200;43.236;27.986;2023-02-16T08:14:58;20.35;;;10.52;;
10309;SDS011;5200;43.236;27.986;2023-02-16T08:17:27;16.48;;;10.23;;
10309;SDS011;5200;43.236;27.986;2023-02-16T08:19:53;22.10;;;11.60;;
10309;SDS011;5200;43.236;27.986;2023-02-16T08:22:20;14.00;;;10.27;;
10309;SDS011;5200;43.236;27.986;2023-02-16T08:24:48;26.00;;;11.00;;
10309;SDS011;5200;43.236;27.986;2023-02-16T08:27:15;13.98;;;9.10;;
10309;SDS011;5200;43.236;27.986;2023-02-16T08:29:42;18.25;;;10.73;;
10309;SDS011;5200;43.236;27.986;2023-02-16T08:32:09;18.67;;;10.18;;
10309;SDS011;5200;43.236;27.986;2023-02-16T08:34:38;9.75;;;6.50;;
10309;SDS011;5200;43.236;27.986;2023-02-16T08:37:05;7.35;;;4.28;;
10309;SDS011;5200;43.236;27.986;2023-02-16T08:39:34;9.38;;;4.55;;
10309;SDS011;5200;43.236;27.986;2023-02-16T08:42:01;6.50;;;4.30;;
10309;SDS011;5200;43.236;27.986;2023-02-16T08:44:28;4.82;;;4.00;;
10309;SDS011;5200;43.236;27.986;2023-02-16T08:46:55;4.80;;;3.85;;
10309;SDS011;5200;43.236;27.986;2023-02-16T08:49:24;5.88;;;4.40;;
10309;SDS011;5200;43.236;27.986;2023-02-16T08:51:53;4.88;;;4.28;;
10309;SDS011;5200;43.236;27.986;2023-02-16T08:54:22;6.68;;;4.10;;
10309;SDS011;5200;43.236;27.986;2023-02-16T08:56:51;5.55;;;4.20;;
10309;SDS011;5200;43.236;27.986;2023-02-16T08:59:19;12.27;;;8.73;;
10309;SDS011;5200;43.236;27.986;2023-02-16T09:01:47;21.77;;;11.23;;
10309;SDS011;5200;43.236;27.986;2023-02-16T09:04:14;22.23;;;12.45;;
10309;SDS011;5200;43.236;27.986;2023-02-16T09:06:43;23.33;;;12.98;;
10309;SDS011;5200;43.236;27.986;2023-02-16T09:09:12;18.58;;;12.85;;
10309;SDS011;5200;43.236;27.986;2023-02-16T09:11:39;21.88;;;12.30;;
10309;SDS011;5200;43.236;27.986;2023-02-16T09:14:06;18.33;;;13.05;;
10309;SDS011;5200;43.236;27.986;2023-02-16T09:16:33;21.92;;;13.63;;
10309;SDS011;5200;43.236;27.986;2023-02-16T09:19:03;24.70;;;12.25;;
10309;SDS011;5200;43.236;27.986;2023-02-16T09:21:30;24.38;;;15.77;;
10309;SDS011;5200;43.236;27.986;2023-02-16T09:23:59;24.00;;;15.05;;
10309;SDS011;5200;43.236;27.986;2023-02-16T09:26:29;23.02;;;15.40;;
10309;SDS011;5200;43.236;27.986;2023-02-16T09:28:57;26.65;;;15.73;;
10309;SDS011;5200;43.236;27.986;2023-02-16T09:31:25;28.70;;;14.43;;
10309;SDS011;5200;43.236;27.986;2023-02-16T09:33:54;23.05;;;15.50;;
10309;SDS011;5200;43.236;27.986;2023-02-16T09:36:22;25.33;;;15.98;;
10309;SDS011;5200;43.236;27.986;2023-02-16T09:38:49;23.70;;;14.38;;
10309;SDS011;5200;43.236;27.986;2023-02-16T09:41:19;27.98;;;15.93;;
10309;SDS011;5200;43.236;27.986;2023-02-16T09:43:57;25.33;;;13.82;;
10309;SDS011;5200;43.236;27.986;2023-02-16T09:46:29;23.90;;;15.68;;
10309;SDS011;5200;43.236;27.986;2023-02-16T09:48:57;20.10;;;14.30;;
10309;SDS011;5200;43.236;27.986;2023-02-16T09:51:30;20.85;;;14.20;;
10309;SDS011;5200;43.236;27.986;2023-02-16T09:54:03;30.08;;;14.30;;
10309;SDS011;5200;43.236;27.986;2023-02-16T09:56:41;20.08;;;14.30;;
10309;SDS011;5200;43.236;27.986;2023-02-16T09:59:18;23.67;;;14.23;;
10309;SDS011;5200;43.236;27.986;2023-02-16T10:01:59;23.23;;;12.60;;
10309;SDS011;5200;43.236;27.986;2023-02-16T10:04:46;18.83;;;11.93;;
10309;SDS011;5200;43.236;27.986;2023-02-16T10:07:23;21.63;;;12.73;;
10309;SDS011;5200;43.236;27.986;2023-02-16T10:09:57;17.65;;;11.77;;
10309;SDS011;5200;43.236;27.986;2023-02-16T10:12:30;17.50;;;12.27;;
10309;SDS011;5200;43.236;27.986;2023-02-16T10:15:06;24.55;;;11.27;;
10309;SDS011;5200;43.236;27.986;2023-02-16T10:17:40;15.25;;;10.60;;
10309;SDS011;5200;43.236;27.986;2023-02-16T10:20:12;24.55;;;14.18;;
10309;SDS011;5200;43.236;27.986;2023-02-16T10:22:44;5.50;;;3.17;;
10309;SDS011;5200;43.236;27.986;2023-02-16T10:25:14;3.17;;;2.83;;
10309;SDS011;5200;43.236;27.986;2023-02-16T10:27:47;10.98;;;4.03;;
10309;SDS011;5200;43.236;27.986;2023-02-16T10:30:22;4.18;;;3.28;;
10309;SDS011;5200;43.236;27.986;2023-02-16T10:32:53;3.63;;;2.75;;
10309;SDS011;5200;43.236;27.986;2023-02-16T10:35:23;5.47;;;3.38;;
10309;SDS011;5200;43.236;27.986;2023-02-16T10:37:58;13.73;;;8.75;;
10309;SDS011;5200;43.236;27.986;2023-02-16T10:40:33;17.55;;;8.80;;
10309;SDS011;5200;43.236;27.986;2023-02-16T10:43:18;15.27;;;9.13;;
10309;SDS011;5200;43.236;27.986;2023-02-16T10:45:52;16.70;;;8.95;;
10309;SDS011;5200;43.236;27.986;2023-02-16T10:48:23;17.40;;;11.10;;
10309;SDS011;5200;43.236;27.986;2023-02-16T10:50:52;14.95;;;11.45;;
10309;SDS011;5200;43.236;27.986;2023-02-16T10:53:27;15.90;;;11.02;;
10309;SDS011;5200;43.236;27.986;2023-02-16T10:56:00;18.63;;;11.75;;
10309;SDS011;5200;43.236;27.986;2023-02-16T10:58:32;16.48;;;11.48;;
10309;SDS011;5200;43.236;27.986;2023-02-16T11:01:06;15.02;;;10.68;;
10309;SDS011;5200;43.236;27.986;2023-02-16T11:03:44;17.42;;;11.75;;
10309;SDS011;5200;43.236;27.986;2023-02-16T11:06:12;18.83;;;11.27;;
10309;SDS011;5200;43.236;27.986;2023-02-16T11:08:45;16.08;;;11.48;;
10309;SDS011;5200;43.236;27.986;2023-02-16T11:11:13;15.70;;;10.38;;
10309;SDS011;5200;43.236;27.986;2023-02-16T11:13:46;16.45;;;11.55;;
10309;SDS011;5200;43.236;27.986;2023-02-16T11:16:19;16.70;;;10.85;;
10309;SDS011;5200;43.236;27.986;2023-02-16T11:18:54;19.67;;;11.02;;
10309;SDS011;5200;43.236;27.986;2023-02-16T11:21:40;18.92;;;10.80;;
10309;SDS011;5200;43.236;27.986;2023-02-16T11:24:12;17.48;;;11.77;;
10309;SDS011;5200;43.236;27.986;2023-02-16T11:26:57;19.42;;;11.07;;
10309;SDS011;5200;43.236;27.986;2023-02-16T11:29:26;21.88;;;11.30;;
10309;SDS011;5200;43.236;27.986;2023-02-16T11:31:54;20.25;;;10.55;;
10309;SDS011;5200;43.236;27.986;2023-02-16T11:34:25;19.52;;;10.95;;
10309;SDS011;5200;43.236;27.986;2023-02-16T11:37:00;16.42;;;11.15;;
10309;SDS011;5200;43.236;27.986;2023-02-16T11:39:32;15.02;;;10.13;;
10309;SDS011;5200;43.236;27.986;2023-02-16T11:42:03;17.95;;;10.50;;
10309;SDS011;5200;43.236;27.986;2023-02-16T11:44:34;15.18;;;9.75;;
10309;SDS011;5200;43.236;27.986;2023-02-16T11:47:06;14.55;;;9.93;;
10309;SDS011;5200;43.236;27.986;2023-02-16T11:49:35;13.88;;;9.38;;
10309;SDS011;5200;43.236;27.986;2023-02-16T11:52:18;14.63;;;9.05;;
10309;SDS011;5200;43.236;27.986;2023-02-16T11:54:51;17.02;;;9.85;;
10309;SDS011;5200;43.236;27.986;2023-02-16T11:57:24;15.38;;;10.18;;
10309;SDS011;5200;43.236;27.986;2023-02-16T11:59:52;17.52;;;9.55;;
10309;SDS011;5200;43.236;27.986;2023-02-16T12:02:29;16.80;;;10.57;;
10309;SDS011;5200;43.236;27.986;2023-02-16T12:05:22;13.45;;;9.52;;
10309;SDS011;5200;43.236;27.986;2023-02-16T12:07:58;13.45;;;9.63;;
10309;SDS011;5200;43.236;27.986;2023-02-16T12:10:41;16.92;;;10.02;;
10309;SDS011;5200;43.236;27.986;2023-02-16T12:13:17;13.43;;;9.57;;
10309;SDS011;5200;43.236;27.986;2023-02-16T12:15:53;16.48;;;9.88;;
10309;SDS011;5200;43.236;27.986;2023-02-16T12:18:29;16.70;;;11.60;;
10309;SDS011;5200;43.236;27.986;2023-02-16T12:21:05;18.50;;;11.48;;
10309;SDS011;5200;43.236;27.986;2023-02-16T12:23:46;18.00;;;12.82;;
10309;SDS011;5200;43.236;27.986;2023-02-16T12:29:21;21.15;;;13.60;;
10309;SDS011;5200;43.236;27.986;2023-02-16T12:32:01;20.88;;;13.27;;
10309;SDS011;5200;43.236;27.986;2023-02-16T12:34:42;19.90;;;13.27;;
10309;SDS011;5200;43.236;27.986;2023-02-16T12:37:20;21.65;;;12.93;;
10309;SDS011;5200;43.236;27.986;2023-02-16T12:39:57;19.40;;;13.38;;
10309;SDS011;5200;43.236;27.986;2023-02-16T12:42:34;21.45;;;13.43;;
10309;SDS011;5200;43.236;27.986;2023-02-16T12:45:12;19.80;;;13.77;;
10309;SDS011;5200;43.236;27.986;2023-02-16T12:47:42;17.02;;;11.65;;
10309;SDS011;5200;43.236;27.986;2023-02-16T12:50:15;17.20;;;12.07;;
10309;SDS011;5200;43.236;27.986;2023-02-16T12:52:47;20.58;;;12.27;;
10309;SDS011;5200;43.236;27.986;2023-02-16T12:55:18;20.75;;;12.27;;
10309;SDS011;5200;43.236;27.986;2023-02-16T12:57:50;16.83;;;11.23;;
10309;SDS011;5200;43.236;27.986;2023-02-16T13:00:23;15.73;;;11.90;;
10309;SDS011;5200;43.236;27.986;2023-02-16T13:02:54;21.10;;;12.20;;
10309;SDS011;5200;43.236;27.986;2023-02-16T13:05:30;20.45;;;13.18;;
10309;SDS011;5200;43.236;27.986;2023-02-16T13:08:04;17.70;;;11.05;;
10309;SDS011;5200;43.236;27.986;2023-02-16T13:10:39;15.20;;;10.07;;
10309;SDS011;5200;43.236;27.986;2023-02-16T13:13:17;19.88;;;11.00;;
10309;SDS011;5200;43.236;27.986;2023-02-16T13:15:49;17.33;;;10.50;;
10309;SDS011;5200;43.236;27.986;2023-02-16T13:18:23;18.85;;;10.55;;
10309;SDS011;5200;43.236;27.986;2023-02-16T13:20:57;16.08;;;10.07;;
10309;SDS011;5200;43.236;27.986;2023-02-16T13:23:36;18.17;;;11.55;;
10309;SDS011;5200;43.236;27.986;2023-02-16T13:26:22;20.58;;;11.52;;
10309;SDS011;5200;43.236;27.986;2023-02-16T13:29:15;20.17;;;11.30;;
10309;SDS011;5200;43.236;27.986;2023-02-16T13:32:01;18.92;;;11.35;;
10309;SDS011;5200;43.236;27.986;2023-02-16T13:34:52;13.63;;;8.98;;
10309;SDS011;5200;43.236;27.986;2023-02-16T13:37:38;17.77;;;13.23;;
10309;SDS011;5200;43.236;27.986;2023-02-16T13:43:30;17.48;;;10.05;;
10309;SDS011;5200;43.236;27.986;2023-02-16T13:45:59;16.42;;;11.15;;
10309;SDS011;5200;43.236;27.986;2023-02-16T13:48:31;18.02;;;10.82;;
10309;SDS011;5200;43.236;27.986;2023-02-16T13:51:05;14.35;;;10.10;;
10309;SDS011;5200;43.236;27.986;2023-02-16T13:53:37;16.60;;;9.93;;
10309;SDS011;5200;43.236;27.986;2023-02-16T13:56:11;14.90;;;9.70;;
10309;SDS011;5200;43.236;27.986;2023-02-16T13:58:54;17.50;;;10.10;;
10309;SDS011;5200;43.236;27.986;2023-02-16T14:01:39;15.27;;;9.98;;
10309;SDS011;5200;43.236;27.986;2023-02-16T14:04:10;19.33;;;12.20;;
10309;SDS011;5200;43.236;27.986;2023-02-16T14:06:39;17.17;;;11.57;;
10309;SDS011;5200;43.236;27.986;2023-02-16T14:12:19;20.48;;;10.75;;
10309;SDS011;5200;43.236;27.986;2023-02-16T14:14:55;18.38;;;12.13;;
10309;SDS011;5200;43.236;27.986;2023-02-16T14:17:28;16.05;;;10.45;;
10309;SDS011;5200;43.236;27.986;2023-02-16T14:19:58;17.88;;;11.15;;
10309;SDS011;5200;43.236;27.986;2023-02-16T14:22:31;22.77;;;15.10;;
10309;SDS011;5200;43.236;27.986;2023-02-16T14:25:05;17.98;;;12.60;;
10309;SDS011;5200;43.236;27.986;2023-02-16T14:27:53;16.35;;;10.63;;
10309;SDS011;5200;43.236;27.986;2023-02-16T14:30:23;17.08;;;10.13;;
10309;SDS011;5200;43.236;27.986;2023-02-16T14:32:55;16.05;;;10.27;;
10309;SDS011;5200;43.236;27.986;2023-02-16T14:35:28;15.80;;;9.02;;
10309;SDS011;5200;43.236;27.986;2023-02-16T14:37:58;14.00;;;10.15;;
10309;SDS011;5200;43.236;27.986;2023-02-16T14:40:42;15.65;;;11.05;;
10309;SDS011;5200;43.236;27.986;2023-02-16T14:43:23;18.83;;;12.18;;
10309;SDS011;5200;43.236;27.986;2023-02-16T14:49:10;18.23;;;11.73;;
10309;SDS011;5200;43.236;27.986;2023-02-16T14:54:49;16.25;;;10.40;;
10309;SDS011;5200;43.236;27.986;2023-02-16T14:57:33;18.70;;;11.32;;
10309;SDS011;5200;43.236;27.986;2023-02-16T15:00:09;17.30;;;11.45;;
10309;SDS011;5200;43.236;27.986;2023-02-16T15:02:53;17.90;;;11.07;;
10309;SDS011;5200;43.236;27.986;2023-02-16T15:05:22;18.17;;;11.88;;
10309;SDS011;5200;43.236;27.986;2023-02-16T15:07:53;18.67;;;11.85;;
10309;SDS011;5200;43.236;27.986;2023-02-16T15:10:27;19.52;;;11.75;;
10309;SDS011;5200;43.236;27.986;2023-02-16T15:12:57;17.73;;;12.73;;
10309;SDS011;5200;43.236;27.986;2023-02-16T15:15:25;16.48;;;11.90;;
10309;SDS011;5200;43.236;27.986;2023-02-16T15:18:01;18.10;;;11.45;;
10309;SDS011;5200;43.236;27.986;2023-02-16T15:20:31;22.05;;;13.13;;